LFOH/LEH METAR and TAF weather

Enter ICAO airport designator
Station Type Date Time Source
LFOH METAR 2020/01/20 10:00 UTC NOAA

LFOH 201000Z AUTO 10005KT CAVOK 05/03 Q1048 TEMPO 4000 BR


Station Type Date Time Source
LFOH Decoded METAR 2020/01/20 10:00 UTC NOAA

La Heve, France (LFOH) 49-31N 000-04E 103M
Jan 20, 2020 - 05:00 AM EST / 2020.01.20 1000 UTC
Wind: from the E (100 degrees) at 6 MPH (5 KT):0
Visibility: greater than 7 mile(s):0
Temperature: 41 F (5 C)
Dew Point: 37 F (3 C)
Relative Humidity: 86%
Pressure (altimeter): 30.95 in. Hg (1048 hPa)
ob: LFOH 201000Z AUTO 10005KT CAVOK 05/03 Q1048 TEMPO 4000 BR
cycle: 10

Station Type Date Time Source
LFOH TAF 2020/01/20 06:57 UTC NOAA

TAF LFOH 200500Z 2006/2106 07007KT CAVOK PROB30 2008/2011 4000 BR
BECMG 2022/2101 1200 BR OVC002

Example: see airport list